KSEF

Details ICAO KSEF (SEF)
Name SEBRING RGNL
Region United States
Timezone America/New_York (UTC-4.0)
Plans Departing 11
Arriving 15
Stats Elevation 63 ft / 19 m (AMSL)
Location 27.456400° -81.342400°
Runways 2
Magnetic Variation 6.318° W
Sunrise 2018-10-22 11:30:32 UTC / 2018-10-22 07:30:32 Local
Sunset 2018-10-22 22:51:25 UTC / 2018-10-22 18:51:25 Local
Advertisement - Login to hide

Runways

ID Width Length Bearing (true/mag) Surface Threshold Overrun Markings Lighting
14 100 ft / 30 m 4,980 ft / 1,518 m 135.02° / 141.33° CONCRETE 282 ft / 86 m 0 ft / 0 m APP
18 100 ft / 30 m 5,241 ft / 1,598 m 179.80° / 186.12° ASPHALT 0 ft / 0 m 0 ft / 0 m APP EDGE THRESHOLD
32 100 ft / 30 m 4,980 ft / 1,518 m 315.02° / 321.34° CONCRETE 0 ft / 0 m 0 ft / 0 m APP
36 100 ft / 30 m 5,241 ft / 1,598 m 359.80° / 6.12° ASPHALT 0 ft / 0 m 0 ft / 0 m APP EDGE THRESHOLD

Map

Weather


0- 5 10 15 20 25 30 35+ Temperature / °C

Clouds and Precipitation
Forecast for 2018-10-22 12:00 UTC. Updated 2 hours ago

Ground ~20,000 ft ~40,000 ft Winds

METAR

KSEF 221115Z AUTO 05004KT 10SM CLR 19/16 A3011 RMK AO2 T01900156

TAF

Not found

Frequencies

Unicom 122.70 MHz CTAF/UNICOM
Recorded 119.47 MHz AWOS 3
Warning: Do not use this data for real-world aviation or navigation. No guarantee of current accuracy is given.